createdAt,value
2019-04-20T00:01:26.213Z,53.75
2019-04-20T00:03:51.949Z,54.17
2019-04-20T00:06:21.631Z,54.55
2019-04-20T00:08:58.741Z,54.86
2019-04-20T00:11:31.022Z,54.80
2019-04-20T00:14:02.019Z,54.90
2019-04-20T00:16:25.164Z,54.21
2019-04-20T00:18:58.333Z,54.96
2019-04-20T00:21:51.995Z,54.20
2019-04-20T00:24:21.577Z,54.18
2019-04-20T00:29:36.708Z,54.66
2019-04-20T00:32:00.556Z,55.04
2019-04-20T00:34:26.452Z,55.48
2019-04-20T00:36:49.819Z,54.89
2019-04-20T00:39:20.229Z,54.86
2019-04-20T00:41:57.132Z,55.57
2019-04-20T00:44:27.312Z,55.70
2019-04-20T00:47:04.484Z,56.01
2019-04-20T00:49:36.350Z,56.52
2019-04-20T00:52:18.679Z,55.59
2019-04-20T00:54:22.666Z,56.01
2019-04-20T00:56:52.049Z,56.25
2019-04-20T00:59:35.499Z,55.78
2019-04-20T01:02:12.616Z,56.73
2019-04-20T01:04:43.233Z,56.00
2019-04-20T01:07:17.590Z,56.46
2019-04-20T01:09:54.225Z,56.20
2019-04-20T01:12:26.773Z,56.54
2019-04-20T01:14:59.172Z,55.77
2019-04-20T01:17:24.468Z,56.05
2019-04-20T01:19:54.134Z,55.93
2019-04-20T01:22:25.438Z,55.93
2019-04-20T01:24:55.023Z,56.40
2019-04-20T01:27:41.197Z,58.00
2019-04-20T01:30:07.009Z,58.07
2019-04-20T01:32:36.064Z,58.77
2019-04-20T01:35:14.042Z,58.39
2019-04-20T01:37:40.627Z,58.23
2019-04-20T01:40:01.113Z,58.11
2019-04-20T01:42:30.047Z,57.20
2019-04-20T01:45:00.290Z,56.24
2019-04-20T01:47:38.721Z,56.67
2019-04-20T01:50:08.548Z,56.64
2019-04-20T01:52:49.356Z,56.57
2019-04-20T01:55:42.478Z,56.83
2019-04-20T01:58:15.803Z,57.04
2019-04-20T02:00:44.023Z,56.01
2019-04-20T02:03:36.969Z,56.14
2019-04-20T02:06:10.040Z,56.08
2019-04-20T02:08:34.301Z,56.57
2019-04-20T02:11:05.775Z,56.09
2019-04-20T02:13:42.146Z,56.31
2019-04-20T02:16:18.332Z,56.59
2019-04-20T02:18:44.207Z,55.99
2019-04-20T02:21:24.163Z,55.76
2019-04-20T02:23:47.431Z,55.92
2019-04-20T02:26:09.217Z,56.30
2019-04-20T02:29:05.942Z,57.08
2019-04-20T02:34:33.536Z,57.19
2019-04-20T02:37:13.959Z,56.93
2019-04-20T02:39:45.557Z,57.76
2019-04-20T02:44:48.086Z,56.21
2019-04-20T02:47:25.807Z,56.46
2019-04-20T02:49:52.385Z,56.57
2019-04-20T02:54:46.768Z,56.96
2019-04-20T02:57:18.678Z,56.46
2019-04-20T03:00:01.218Z,56.25
2019-04-20T03:02:06.050Z,56.60
2019-04-20T03:04:25.753Z,56.37
2019-04-20T03:07:05.203Z,56.84
2019-04-20T03:09:39.944Z,56.81
2019-04-20T03:12:23.635Z,55.96
2019-04-20T03:14:34.868Z,56.49
2019-04-20T03:17:15.339Z,55.86
2019-04-20T03:19:37.635Z,55.44
2019-04-20T03:22:13.816Z,56.20
2019-04-20T03:24:51.397Z,56.12
2019-04-20T03:27:10.828Z,56.17
2019-04-20T03:29:46.954Z,56.21
2019-04-20T03:37:27.537Z,56.05
2019-04-20T03:39:46.634Z,56.38
2019-04-20T03:42:01.044Z,56.29
2019-04-20T03:44:34.034Z,56.55
2019-04-20T03:47:06.858Z,56.49
2019-04-20T03:49:54.993Z,56.89
2019-04-20T03:52:26.164Z,57.09
2019-04-20T03:54:52.244Z,56.42
2019-04-20T03:57:38.301Z,55.99
2019-04-20T04:00:04.885Z,56.33
2019-04-20T04:02:55.480Z,56.39
2019-04-20T04:05:13.563Z,57.45
2019-04-20T04:07:36.497Z,57.28
2019-04-20T04:10:14.095Z,56.71
2019-04-20T04:13:05.154Z,57.10
2019-04-20T04:15:36.140Z,56.96
2019-04-20T04:18:13.856Z,56.59
2019-04-20T04:20:49.259Z,56.97
2019-04-20T04:23:22.038Z,56.63
2019-04-20T04:25:58.130Z,56.53
2019-04-20T04:28:28.689Z,56.87
2019-04-20T04:31:06.330Z,57.09
2019-04-20T04:35:59.264Z,57.72
2019-04-20T04:38:37.792Z,56.84
2019-04-20T04:43:34.246Z,57.35
2019-04-20T04:45:46.966Z,58.04
2019-04-20T04:48:22.363Z,57.87
2019-04-20T04:50:56.307Z,58.21
2019-04-20T04:53:30.005Z,58.10
2019-04-20T04:55:57.532Z,58.61
2019-04-20T04:58:21.478Z,59.32
2019-04-20T05:00:51.516Z,59.68
2019-04-20T05:03:41.288Z,60.24
2019-04-20T05:06:13.432Z,60.34
2019-04-20T05:08:36.066Z,59.84
2019-04-20T05:10:58.555Z,58.50
2019-04-20T05:13:37.008Z,59.59
2019-04-20T05:16:13.478Z,58.84
2019-04-20T05:18:53.123Z,58.78
2019-04-20T05:21:22.552Z,58.77
2019-04-20T05:23:44.429Z,58.93
2019-04-20T05:26:44.323Z,58.61
2019-04-20T05:29:03.237Z,58.70
2019-04-20T05:31:34.877Z,58.21
2019-04-20T05:34:20.609Z,58.12
2019-04-20T05:36:45.049Z,57.78
2019-04-20T05:39:22.513Z,57.50
2019-04-20T05:41:45.463Z,58.08
2019-04-20T05:44:12.385Z,58.53
2019-04-20T05:46:45.934Z,58.29
2019-04-20T05:49:23.605Z,58.20
2019-04-20T05:51:49.883Z,58.56
2019-04-20T05:54:26.942Z,59.18
2019-04-20T05:56:51.274Z,59.48
2019-04-20T05:59:21.862Z,60.93
2019-04-20T06:02:01.389Z,59.50
2019-04-20T06:04:42.640Z,60.77
2019-04-20T06:06:56.492Z,61.75
2019-04-20T06:09:29.565Z,61.61
2019-04-20T06:12:17.996Z,62.46
2019-04-20T06:14:20.564Z,62.27
2019-04-20T06:17:02.467Z,60.87
2019-04-20T06:19:35.491Z,60.54
2019-04-20T06:22:14.901Z,61.64
2019-04-20T06:24:52.791Z,60.90
2019-04-20T06:27:17.981Z,62.15
2019-04-20T06:29:45.755Z,60.21
2019-04-20T06:32:21.192Z,60.41
2019-04-20T06:34:41.621Z,59.89
2019-04-20T06:37:17.224Z,60.58
2019-04-20T06:39:54.683Z,60.47
2019-04-20T06:42:17.945Z,58.59
2019-04-20T06:44:50.498Z,59.69
2019-04-20T06:47:24.693Z,59.40
2019-04-20T06:49:50.399Z,59.22
2019-04-20T06:52:39.252Z,58.76
2019-04-20T06:55:06.950Z,58.33
2019-04-20T06:57:37.244Z,56.68
2019-04-20T07:02:44.427Z,56.50
2019-04-20T07:05:28.687Z,55.80
2019-04-20T07:07:47.464Z,54.61
2019-04-20T07:10:19.762Z,55.29
2019-04-20T07:12:42.517Z,55.88
2019-04-20T07:15:16.259Z,53.92
2019-04-20T07:17:57.042Z,49.50
2019-04-20T07:20:21.273Z,50.58
2019-04-20T07:23:02.296Z,51.37
2019-04-20T07:25:31.073Z,52.01
2019-04-20T07:27:59.367Z,51.65
2019-04-20T07:30:30.869Z,51.74
2019-04-20T07:33:04.503Z,51.25
2019-04-20T07:35:35.642Z,51.81
2019-04-20T07:40:35.482Z,50.70
2019-04-20T07:43:02.804Z,50.91
2019-04-20T07:45:35.082Z,50.40
2019-04-20T07:48:11.247Z,51.88
2019-04-20T07:50:31.684Z,50.32
2019-04-20T07:53:07.618Z,51.94
2019-04-20T07:55:54.113Z,50.92
2019-04-20T07:58:02.772Z,50.42
2019-04-20T08:00:48.498Z,49.60
2019-04-20T08:03:20.173Z,49.34
2019-04-20T08:05:40.551Z,49.93
2019-04-20T08:08:18.068Z,51.17
2019-04-20T08:10:48.193Z,51.88
2019-04-20T08:15:56.997Z,50.68
2019-04-20T08:18:29.321Z,51.07
2019-04-20T08:20:58.114Z,48.71
2019-04-20T08:23:23.611Z,49.15
2019-04-20T08:25:46.824Z,47.23
2019-04-20T08:28:20.861Z,49.19
2019-04-20T08:31:06.389Z,47.40
2019-04-20T08:33:55.506Z,46.86
2019-04-20T08:36:21.510Z,47.83
2019-04-20T08:41:13.670Z,43.78
2019-04-20T08:43:53.126Z,46.63
2019-04-20T08:46:21.992Z,45.41
2019-04-20T08:48:50.850Z,45.33
2019-04-20T08:51:19.387Z,45.05
2019-04-20T08:53:53.620Z,45.22
2019-04-20T08:56:17.306Z,46.15
2019-04-20T08:58:33.938Z,44.53
2019-04-20T09:01:08.372Z,44.58
2019-04-20T09:03:48.717Z,43.72
2019-04-20T09:06:19.404Z,43.63
2019-04-20T09:08:49.190Z,44.27
2019-04-20T09:11:26.058Z,43.72
2019-04-20T09:13:43.627Z,44.46
2019-04-20T09:16:10.960Z,43.17
2019-04-20T09:18:50.283Z,47.16
2019-04-20T09:21:25.344Z,46.75
2019-04-20T09:24:16.175Z,42.74
2019-04-20T09:26:37.127Z,45.15
2019-04-20T09:29:04.149Z,42.81
2019-04-20T09:31:40.822Z,44.13
2019-04-20T09:34:15.417Z,44.54
2019-04-20T09:36:46.174Z,44.55
2019-04-20T09:39:15.067Z,43.94
2019-04-20T09:41:59.001Z,42.21
2019-04-20T09:44:11.068Z,42.19
2019-04-20T09:46:46.023Z,42.12
2019-04-20T09:49:20.170Z,44.06
2019-04-20T09:51:58.554Z,43.70
2019-04-20T09:54:32.605Z,42.68
2019-04-20T09:57:07.626Z,41.75
2019-04-20T09:59:33.499Z,41.20
2019-04-20T10:01:50.434Z,41.07
2019-04-20T10:04:17.413Z,42.32
2019-04-20T10:06:47.637Z,43.02
2019-04-20T10:09:21.310Z,41.49
2019-04-20T10:11:48.746Z,42.34
2019-04-20T10:14:17.908Z,39.70
2019-04-20T10:16:47.412Z,44.41
2019-04-20T10:19:20.623Z,41.42
2019-04-20T10:21:46.929Z,40.25
2019-04-20T10:24:16.686Z,40.18
2019-04-20T10:26:46.045Z,41.52
2019-04-20T10:29:15.458Z,38.94
2019-04-20T10:31:51.482Z,39.78
2019-04-20T10:34:15.853Z,36.59
2019-04-20T10:36:47.804Z,37.81
2019-04-20T10:39:18.557Z,37.74
2019-04-20T10:41:52.578Z,37.67
2019-04-20T10:44:18.715Z,37.56
2019-04-20T10:46:49.041Z,36.16
2019-04-20T10:49:19.320Z,35.93
2019-04-20T10:51:49.451Z,35.35
2019-04-20T10:54:18.497Z,35.35
2019-04-20T10:56:47.806Z,39.33
2019-04-20T10:59:16.787Z,37.07
2019-04-20T11:01:45.824Z,37.32
2019-04-20T11:04:14.804Z,39.27
2019-04-20T11:06:44.816Z,39.27
2019-04-20T11:09:14.408Z,37.07
2019-04-20T11:11:44.167Z,36.10
2019-04-20T11:14:21.137Z,36.04
2019-04-20T11:16:44.492Z,33.83
2019-04-20T11:19:13.650Z,33.83
2019-04-20T11:21:42.542Z,35.09
2019-04-20T11:24:12.458Z,34.20
2019-04-20T11:26:42.305Z,33.20
2019-04-20T11:29:12.185Z,31.41
2019-04-20T11:31:46.764Z,31.41
2019-04-20T11:34:15.004Z,30.73
2019-04-20T11:36:43.380Z,31.88
2019-04-20T11:39:14.752Z,30.69
2019-04-20T11:41:43.812Z,32.76
2019-04-20T11:44:13.767Z,32.94
2019-04-20T11:46:43.041Z,29.58
2019-04-20T11:49:13.206Z,30.13
2019-04-20T11:51:43.450Z,32.33
2019-04-20T11:54:12.674Z,34.99
2019-04-20T11:56:45.168Z,34.83
2019-04-20T11:59:12.607Z,34.52
2019-04-20T12:01:51.081Z,33.36
2019-04-20T12:04:26.132Z,35.37
2019-04-20T12:06:46.673Z,37.71
2019-04-20T12:09:16.935Z,37.57
2019-04-20T12:11:59.658Z,37.83
2019-04-20T12:14:16.710Z,38.24
2019-04-20T12:16:45.920Z,38.90
2019-04-20T12:19:14.893Z,39.22
2019-04-20T12:21:43.887Z,38.08
2019-04-20T12:24:14.214Z,38.48
2019-04-20T12:26:43.318Z,35.98
2019-04-20T12:29:13.958Z,36.20
2019-04-20T12:31:44.289Z,37.92
2019-04-20T12:34:13.668Z,38.03
2019-04-20T12:36:42.851Z,36.93
2019-04-20T12:39:13.243Z,37.44
2019-04-20T12:41:49.800Z,37.87
2019-04-20T12:44:14.081Z,37.73
2019-04-20T12:46:43.737Z,39.00
2019-04-20T12:49:13.664Z,41.09
2019-04-20T12:51:50.598Z,40.38
2019-04-20T12:54:14.515Z,38.89
2019-04-20T12:56:44.681Z,39.29
2019-04-20T12:59:13.832Z,39.83
2019-04-20T13:01:43.720Z,38.72
2019-04-20T13:04:14.310Z,38.78
2019-04-20T13:06:44.681Z,38.82
2019-04-20T13:09:14.587Z,39.53
2019-04-20T13:11:52.983Z,38.08
2019-04-20T13:14:46.719Z,38.45
2019-04-20T13:17:16.642Z,37.24
2019-04-20T13:19:47.049Z,38.17
2019-04-20T13:22:17.033Z,38.25
2019-04-20T13:24:47.287Z,33.62
2019-04-20T13:27:16.761Z,34.27
2019-04-20T13:29:47.905Z,33.19
2019-04-20T13:32:16.436Z,34.05
2019-04-20T13:34:46.863Z,35.21
2019-04-20T13:37:16.032Z,36.38
2019-04-20T13:39:45.056Z,36.64
2019-04-20T13:42:22.411Z,33.95
2019-04-20T13:44:45.250Z,34.93
2019-04-20T13:47:14.898Z,34.21
2019-04-20T13:49:45.204Z,33.07
2019-04-20T13:52:15.021Z,33.48
2019-04-20T13:54:45.189Z,32.94
2019-04-20T13:57:24.879Z,32.14
2019-04-20T13:59:57.738Z,32.24
2019-04-20T14:02:31.262Z,32.55
2019-04-20T14:05:02.735Z,31.59
2019-04-20T14:07:33.467Z,31.49
2019-04-20T14:10:03.623Z,31.52
2019-04-20T14:12:37.595Z,33.45
2019-04-20T14:15:05.083Z,32.63
2019-04-20T14:17:35.071Z,31.33
2019-04-20T14:20:11.633Z,31.83
2019-04-20T14:22:36.866Z,31.54
2019-04-20T14:25:07.042Z,33.28
2019-04-20T14:27:37.123Z,31.64
2019-04-20T14:30:07.040Z,30.82
2019-04-20T14:32:36.818Z,30.75
2019-04-20T14:35:07.222Z,30.13
2019-04-20T14:37:36.149Z,30.65
2019-04-20T14:40:08.189Z,31.97
2019-04-20T14:42:44.742Z,31.01
2019-04-20T14:45:09.061Z,30.34
2019-04-20T14:47:39.657Z,31.88
2019-04-20T14:50:11.693Z,32.20
2019-04-20T14:52:43.755Z,30.47
2019-04-20T14:55:16.924Z,32.35
2019-04-20T14:57:45.657Z,31.70
2019-04-20T15:00:21.587Z,29.32
2019-04-20T15:02:50.552Z,29.73
2019-04-20T15:05:21.152Z,29.76
2019-04-20T15:07:51.612Z,30.77
2019-04-20T15:10:20.639Z,28.65
2019-04-20T15:12:55.758Z,29.19
2019-04-20T15:15:20.736Z,29.52
2019-04-20T15:17:51.479Z,31.08
2019-04-20T15:20:21.817Z,28.93
2019-04-20T15:22:51.730Z,30.04
2019-04-20T15:25:21.280Z,28.91
2019-04-20T15:27:50.323Z,28.89
2019-04-20T15:30:20.497Z,27.75
2019-04-20T15:32:49.430Z,29.82
2019-04-20T15:35:19.690Z,29.41
2019-04-20T15:37:49.211Z,30.06
2019-04-20T15:40:19.310Z,26.97
2019-04-20T15:42:58.035Z,28.19
2019-04-20T15:45:19.145Z,26.73
2019-04-20T15:47:48.059Z,27.46
2019-04-20T15:50:18.066Z,28.39
2019-04-20T15:52:52.210Z,27.04
2019-04-20T15:55:24.877Z,26.82
2019-04-20T15:57:48.381Z,26.92
2019-04-20T16:00:18.398Z,26.95
2019-04-20T16:02:49.506Z,26.96
2019-04-20T16:05:20.068Z,28.73
2019-04-20T16:07:54.921Z,26.42
2019-04-20T16:10:21.157Z,26.43
2019-04-20T16:13:02.034Z,26.51
2019-04-20T16:15:22.020Z,25.73
2019-04-20T16:17:53.100Z,26.13
2019-04-20T16:20:23.528Z,27.38
2019-04-20T16:22:52.328Z,26.26
2019-04-20T16:25:23.494Z,27.24
2019-04-20T16:27:53.770Z,27.08
2019-04-20T16:30:23.356Z,26.67
2019-04-20T16:32:52.567Z,28.26
2019-04-20T16:35:22.581Z,28.04
2019-04-20T16:37:52.695Z,27.35
2019-04-20T16:40:23.309Z,27.35
2019-04-20T16:42:52.379Z,27.21
2019-04-20T16:45:21.417Z,27.32
2019-04-20T16:47:50.273Z,26.03
2019-04-20T16:50:19.450Z,26.42
2019-04-20T16:52:48.815Z,26.08
2019-04-20T16:55:18.831Z,27.09
2019-04-20T16:57:49.642Z,29.09
2019-04-20T17:00:19.859Z,26.66
2019-04-20T17:02:50.117Z,26.40
2019-04-20T17:05:19.158Z,26.74
2019-04-20T17:07:50.880Z,27.00
2019-04-20T17:10:23.505Z,27.28
2019-04-20T17:12:53.694Z,27.70
2019-04-20T17:15:23.688Z,27.63
2019-04-20T17:17:53.795Z,26.42
2019-04-20T17:20:25.241Z,26.54
2019-04-20T17:22:54.334Z,25.82
2019-04-20T17:25:23.931Z,25.94
2019-04-20T17:28:07.287Z,27.72
2019-04-20T17:30:47.819Z,29.31
2019-04-20T17:33:21.299Z,28.27
2019-04-20T17:35:57.271Z,27.76
2019-04-20T17:38:20.670Z,27.82
2019-04-20T17:41:02.999Z,27.20
2019-04-20T17:43:29.138Z,29.40
2019-04-20T17:46:02.217Z,28.20
2019-04-20T17:48:33.798Z,28.20
2019-04-20T17:51:13.978Z,29.28
2019-04-20T17:53:49.061Z,28.53
2019-04-20T17:56:12.453Z,28.33
2019-04-20T17:58:41.529Z,29.04
2019-04-20T18:01:41.233Z,30.37
2019-04-20T18:04:36.650Z,30.71
2019-04-20T18:06:52.597Z,30.93
2019-04-20T18:09:34.924Z,32.05
2019-04-20T18:11:46.759Z,32.46
2019-04-20T18:14:28.514Z,31.96
2019-04-20T18:17:05.945Z,32.75
2019-04-20T18:19:34.765Z,33.39
2019-04-20T18:22:05.853Z,33.50
2019-04-20T18:24:55.827Z,32.83
2019-04-20T18:27:27.878Z,35.37
2019-04-20T18:29:53.396Z,33.69
2019-04-20T18:32:19.712Z,33.09
2019-04-20T18:35:03.525Z,35.13
2019-04-20T18:37:31.029Z,34.99
2019-04-20T18:40:06.230Z,35.17
2019-04-20T18:42:37.194Z,35.43
2019-04-20T18:45:21.938Z,36.59
2019-04-20T18:47:48.982Z,35.43
2019-04-20T18:50:11.346Z,35.20
2019-04-20T18:52:35.682Z,35.40
2019-04-20T18:55:13.785Z,35.40
2019-04-20T18:57:38.327Z,35.41
2019-04-20T19:00:18.008Z,34.52
2019-04-20T19:02:46.834Z,34.00
2019-04-20T19:05:13.637Z,35.71
2019-04-20T19:07:52.789Z,37.40
2019-04-20T19:10:22.983Z,37.48
2019-04-20T19:12:54.330Z,38.34
2019-04-20T19:15:55.203Z,39.00
2019-04-20T19:18:23.826Z,38.36
2019-04-20T19:20:43.210Z,38.12
2019-04-20T19:23:12.349Z,38.22
2019-04-20T19:25:42.476Z,38.85
2019-04-20T19:28:14.486Z,38.76
2019-04-20T19:30:50.258Z,38.85
2019-04-20T19:33:30.055Z,38.42
2019-04-20T19:35:53.097Z,38.29
2019-04-20T19:38:20.893Z,38.56
2019-04-20T19:40:56.536Z,38.27
2019-04-20T19:43:26.637Z,39.22
2019-04-20T19:46:31.202Z,39.00
2019-04-20T19:48:36.250Z,38.74
2019-04-20T19:51:10.179Z,39.18
2019-04-20T19:53:36.659Z,39.54
2019-04-20T19:56:04.044Z,40.88
2019-04-20T19:58:35.941Z,40.60
2019-04-20T20:00:56.308Z,39.77
2019-04-20T20:03:25.930Z,39.89
2019-04-20T20:05:57.504Z,40.54
2019-04-20T20:08:29.494Z,40.58
2019-04-20T20:10:59.187Z,40.61
2019-04-20T20:13:34.508Z,40.42
2019-04-20T20:16:07.015Z,40.33
2019-04-20T20:18:41.110Z,39.98
2019-04-20T20:21:13.847Z,39.83
2019-04-20T20:23:29.976Z,40.01
2019-04-20T20:26:01.936Z,39.85
2019-04-20T20:28:37.039Z,41.86
2019-04-20T20:31:08.661Z,39.93
2019-04-20T20:33:43.915Z,38.46
2019-04-20T20:36:06.605Z,38.12
2019-04-20T20:38:37.749Z,38.15
2019-04-20T20:41:12.655Z,37.56
2019-04-20T20:43:47.431Z,37.11
2019-04-20T20:46:18.557Z,36.71
2019-04-20T20:48:57.480Z,35.16
2019-04-20T20:51:22.905Z,34.75
2019-04-20T20:53:49.859Z,34.44
2019-04-20T20:56:14.998Z,33.83
2019-04-20T20:58:48.597Z,34.00
2019-04-20T21:01:12.926Z,35.24
2019-04-20T21:03:42.558Z,35.24
2019-04-20T21:06:09.777Z,34.81
2019-04-20T21:08:45.927Z,35.39
2019-04-20T21:11:13.201Z,33.95
2019-04-20T21:13:46.489Z,32.83
2019-04-20T21:16:17.284Z,32.32
2019-04-20T21:18:55.260Z,33.36
2019-04-20T21:21:31.468Z,32.53
2019-04-20T21:23:53.205Z,32.85
2019-04-20T21:26:21.653Z,32.68
2019-04-20T21:28:44.177Z,33.25
2019-04-20T21:31:18.829Z,33.42
2019-04-20T21:33:44.863Z,32.68
2019-04-20T21:36:19.085Z,32.87
2019-04-20T21:38:45.156Z,32.25
2019-04-20T21:41:19.814Z,31.68
2019-04-20T21:43:48.113Z,31.13
2019-04-20T21:46:18.640Z,30.82
2019-04-20T21:49:00.749Z,31.67
2019-04-20T21:51:30.387Z,30.91
2019-04-20T21:53:48.939Z,31.09
2019-04-20T21:56:17.848Z,30.80
2019-04-20T21:58:50.526Z,31.26
2019-04-20T22:01:28.595Z,31.05
2019-04-20T22:03:50.260Z,30.07
2019-04-20T22:06:20.280Z,31.50
2019-04-20T22:08:54.538Z,31.21
2019-04-20T22:11:20.014Z,30.78
2019-04-20T22:13:50.899Z,31.25
2019-04-20T22:16:20.802Z,31.49
2019-04-20T22:18:58.279Z,31.49
2019-04-20T22:21:26.549Z,30.32
2019-04-20T22:24:04.186Z,30.61
2019-04-20T22:26:30.735Z,30.90
2019-04-20T22:28:54.178Z,31.22
2019-04-20T22:31:24.404Z,30.97
2019-04-20T22:33:54.391Z,31.29
2019-04-20T22:36:24.787Z,31.76
2019-04-20T22:39:13.735Z,35.57
2019-04-20T22:41:52.435Z,33.01
2019-04-20T22:44:21.045Z,32.39
2019-04-20T22:46:50.084Z,31.77
2019-04-20T22:49:35.924Z,31.70
2019-04-20T22:51:58.126Z,34.56
2019-04-20T22:54:37.287Z,34.45
2019-04-20T22:57:01.675Z,33.58
2019-04-20T22:59:30.362Z,33.78
2019-04-20T23:01:58.210Z,33.59
2019-04-20T23:04:24.730Z,34.25
2019-04-20T23:06:55.546Z,34.56
2019-04-20T23:09:26.810Z,33.35
2019-04-20T23:12:03.790Z,33.37
2019-04-20T23:14:26.606Z,33.04
2019-04-20T23:16:57.466Z,33.41
2019-04-20T23:19:35.623Z,33.65
2019-04-20T23:22:01.258Z,32.56
2019-04-20T23:24:29.055Z,32.63
2019-04-20T23:26:59.490Z,35.10
2019-04-20T23:29:32.714Z,34.86
2019-04-20T23:32:04.199Z,33.56
2019-04-20T23:34:32.285Z,34.56
2019-04-20T23:37:00.930Z,33.99
2019-04-20T23:39:35.357Z,33.71
2019-04-20T23:42:08.430Z,39.79
2019-04-20T23:44:56.023Z,40.17
2019-04-20T23:47:25.396Z,34.80
2019-04-20T23:50:12.398Z,36.87
2019-04-20T23:52:49.148Z,36.46
2019-04-20T23:55:03.011Z,33.15
2019-04-20T23:57:27.694Z,33.31
2019-04-20T23:59:56.585Z,32.75
